バロー の空港の天気 - METARとTAF

Barrow, Wiley Post-Will Rogers Memorial Airport ( PABR / BRW ) - アメリカ アラスカ州バロー
飛行場実況気象(Metar)
観測時間07/22 09:54 AKDT (07/22 17:54 UTC)
風向・風速南西 8m/s
視程10km以上
天気現象
少しの雲 雲底高度 340m
全天を覆う雲 雲底高度 2740m
気温12℃
湿度100%
気圧1015hPa
METARPABR 221754Z 23015KT 10SM FEW011 OVC090 12/12 A2998
過去の天気等 Google飛行場航空写真 Wunderground天気予報

過去48時間のMETAR

飛行場予報(TAF)
発表時間: 7/22 09:39 AKDT (7/22 17:39 UTC)
予報対象時間: 22日10時 AKDT ~ 23日10時 AKDT
風向・風速南西 8m/s 瞬間風速 11m/s
視程10km以上
全天の8割程度の雲 雲底高度 1830m
22日12時 AKDT から
風向・風速西南西 9m/s 瞬間風速 13m/s
視程10km以上
天気現象周辺でしゅう雨
全天の8割程度の雲 雲底高度 610m
全天の8割程度の雲 雲底高度 1520m
22日16時 AKDT から
風向・風速西南西 8m/s 瞬間風速 10m/s
視程6440m
天気現象弱いしゅう雨 もや
全天の8割程度の雲 雲底高度 460m
全天を覆う雲 雲底高度 1070m
22日22時 AKDT から
風向・風速西 5m/s
視程3220m
天気現象弱いしゅう雨 もや
全天の8割程度の雲 雲底高度 300m
全天を覆う雲 雲底高度 910m
PABR 221739Z 2218/2318 23016G22KT P6SM BKN060
FM222000 24018G25KT P6SM VCSH BKN020 BKN050
FM230000 25015G20KT 4SM -SHRA BR BKN015 OVC035
FM230600 26010KT 2SM -SHRA BR BKN010 OVC030